Time;durP1;ratioP1;P1;durP2;ratioP2;P2;SDS_P1;SDS_P2;PMS_P1;PMS_P2;Temp;Humidity;BMP_temperature;BMP_pressure;BME280_temperature;BME280_humidity;BME280_pressure;Samples;Min_cycle;Max_cycle;Signal;HPM_P1;HPM_P2
2024/01/03 00:00:13;;;;;;;5.95;1.25;;;;;;;11.82;79.27;98477.44;4980483;28;20050;-60
2024/01/03 00:02:38;;;;;;;7.53;1.05;;;;;;;11.82;79.39;98480.88;4974762;28;20038;-60
2024/01/03 00:05:07;;;;;;;8.15;1.60;;;;;;;11.92;77.86;98444.19;4973389;28;20023;-59
2024/01/03 00:07:32;;;;;;;7.63;1.88;;;;;;;11.86;79.07;98482.41;4978284;28;20053;-59
2024/01/03 00:10:01;;;;;;;8.02;1.50;;;;;;;11.90;77.81;98459.75;4973161;28;20413;-58
2024/01/03 00:12:26;;;;;;;9.30;1.30;;;;;;;11.90;77.29;98452.00;4986123;28;20077;-59
2024/01/03 00:14:52;;;;;;;4.95;1.13;;;;;;;12.01;75.35;98413.47;4987115;28;20118;-58
2024/01/03 00:17:20;;;;;;;6.97;1.45;;;;;;;11.97;76.96;98457.72;4985357;28;20375;-60
2024/01/03 00:19:54;;;;;;;5.00;1.42;;;;;;;11.90;76.68;98446.81;4973177;28;20073;-61
2024/01/03 00:22:20;;;;;;;7.15;1.23;;;;;;;11.91;76.73;98453.69;4979876;28;20039;-61
2024/01/03 00:24:48;;;;;;;11.63;1.98;;;;;;;11.83;76.93;98467.03;4976127;28;20814;-61
2024/01/03 00:27:13;;;;;;;7.97;1.35;;;;;;;11.70;76.90;98465.09;4983618;28;20034;-61
2024/01/03 00:29:52;;;;;;;3.88;1.20;;;;;;;11.62;76.69;98465.50;4970924;28;20081;-61
2024/01/03 00:32:19;;;;;;;3.88;1.00;;;;;;;11.57;77.73;98480.41;4979907;28;20768;-61
2024/01/03 00:34:44;;;;;;;3.50;1.17;;;;;;;11.57;77.97;98498.53;4972498;28;20039;-61
2024/01/03 00:37:24;;;;;;;6.95;1.10;;;;;;;11.60;77.24;98480.28;4974522;28;20037;-61
2024/01/03 00:39:50;;;;;;;4.82;1.08;;;;;;;11.66;76.84;98468.78;4976086;28;20763;-61
2024/01/03 00:42:16;;;;;;;5.90;1.30;;;;;;;11.60;77.37;98500.13;4974906;28;20047;-58
2024/01/03 00:44:42;;;;;;;3.83;0.90;;;;;;;11.47;79.14;98527.50;4975407;28;20045;-58
2024/01/03 00:47:08;;;;;;;3.38;0.93;;;;;;;11.48;77.79;98524.84;4976927;28;20489;-58
2024/01/03 00:49:35;;;;;;;4.82;0.82;;;;;;;11.55;77.34;98515.84;4973046;28;20133;-58
2024/01/03 00:52:01;;;;;;;6.75;1.10;;;;;;;11.51;78.88;98529.03;4976081;28;20069;-58
2024/01/03 00:54:29;;;;;;;5.97;1.15;;;;;;;11.51;79.18;98540.22;4977153;28;20121;-58
2024/01/03 00:56:54;;;;;;;5.63;1.10;;;;;;;11.44;80.19;98556.09;4976649;28;20039;-58
2024/01/03 00:59:20;;;;;;;6.07;1.25;;;;;;;11.27;81.02;98578.38;4975588;28;20037;-58
2024/01/03 01:01:46;;;;;;;5.30;1.10;;;;;;;11.23;80.01;98561.31;4974380;28;20038;-58
2024/01/03 01:04:13;;;;;;;4.30;0.85;;;;;;;11.18;80.11;98581.38;4976703;28;20130;-60
2024/01/03 01:06:41;;;;;;;2.78;0.88;;;;;;;11.27;80.62;98585.31;4976151;28;20047;-61
2024/01/03 01:09:08;;;;;;;4.60;0.77;;;;;;;11.26;81.51;98599.97;4976532;28;20124;-61
2024/01/03 01:11:34;;;;;;;5.65;1.70;;;;;;;11.34;80.19;98574.59;4971981;28;20152;-60
2024/01/03 01:13:59;;;;;;;3.03;0.60;;;;;;;11.37;79.75;98572.78;4975364;28;20481;-61
2024/01/03 01:16:25;;;;;;;5.65;0.82;;;;;;;11.31;80.41;98590.25;4975942;28;20034;-60
2024/01/03 01:18:50;;;;;;;5.40;0.88;;;;;;;11.29;80.15;98588.63;4976957;28;20046;-61
2024/01/03 01:21:16;;;;;;;2.35;0.60;;;;;;;11.22;81.22;98601.00;4975981;28;20788;-61
2024/01/03 01:23:42;;;;;;;3.88;0.80;;;;;;;11.15;81.84;98622.06;4974400;28;20026;-61
2024/01/03 01:26:10;;;;;;;7.15;0.85;;;;;;;11.08;82.32;98624.06;4975930;28;20034;-61
2024/01/03 01:28:36;;;;;;;2.10;0.68;;;;;;;10.96;83.89;98658.22;4971138;28;20111;-61
2024/01/03 01:31:01;;;;;;;1.65;0.57;;;;;;;10.95;84.61;98659.09;4971084;28;20461;-60
2024/01/03 01:33:27;;;;;;;4.15;1.15;;;;;;;11.00;84.93;98667.53;4977005;28;20129;-61
2024/01/03 01:35:52;;;;;;;0.88;0.47;;;;;;;11.01;85.17;98676.13;4970273;28;20745;-61
2024/01/03 01:38:17;;;;;;;2.33;0.50;;;;;;;10.99;85.96;98694.25;4967641;28;20038;-61
2024/01/03 01:40:45;;;;;;;2.75;0.40;;;;;;;10.95;86.64;98692.72;4973742;28;20042;-62
2024/01/03 01:43:11;;;;;;;3.55;0.90;;;;;;;10.88;88.02;98704.22;4978869;28;20659;-62
2024/01/03 01:45:36;;;;;;;2.03;0.40;;;;;;;10.79;88.22;98713.22;4972327;28;20038;-62
2024/01/03 01:48:02;;;;;;;2.00;0.60;;;;;;;10.68;89.51;98714.56;4968525;28;20050;-62
2024/01/03 01:50:28;;;;;;;3.03;0.80;;;;;;;10.57;90.88;98707.25;4970554;28;20038;-62
2024/01/03 01:52:54;;;;;;;2.83;0.85;;;;;;;10.44;92.20;98710.41;4968787;28;20716;-62
2024/01/03 01:55:21;;;;;;;5.72;0.88;;;;;;;10.38;93.04;98702.91;4970346;28;20041;-62
2024/01/03 01:57:47;;;;;;;6.25;0.95;;;;;;;10.33;93.26;98710.00;4978665;28;20041;-62
2024/01/03 02:00:14;;;;;;;3.17;0.73;;;;;;;10.38;92.95;98702.91;4967893;28;20046;-61
2024/01/03 02:02:42;;;;;;;6.35;1.27;;;;;;;10.29;95.15;98706.69;4977327;28;20041;-61
2024/01/03 02:05:09;;;;;;;3.33;1.02;;;;;;;10.23;95.76;98702.63;4969538;28;20054;-62
2024/01/03 02:07:35;;;;;;;5.03;1.15;;;;;;;10.21;95.13;98696.66;4973967;28;20041;-61
2024/01/03 02:10:01;;;;;;;6.40;0.95;;;;;;;10.16;96.32;98705.47;4973347;28;20432;-62
2024/01/03 02:12:27;;;;;;;5.15;1.50;;;;;;;10.09;96.68;98712.63;4974477;28;20560;-61
2024/01/03 02:14:53;;;;;;;5.50;1.10;;;;;;;10.00;97.01;98705.22;4971565;28;20089;-62
2024/01/03 02:17:18;;;;;;;5.88;1.20;;;;;;;9.99;97.02;98705.31;4977996;28;20029;-62
2024/01/03 02:19:44;;;;;;;4.32;1.25;;;;;;;9.97;97.44;98707.94;4975890;28;20563;-61
2024/01/03 02:22:09;;;;;;;5.38;0.95;;;;;;;9.98;97.15;98709.63;4970862;28;20464;-61
2024/01/03 02:24:35;;;;;;;9.10;1.55;;;;;;;10.06;95.48;98693.88;4971310;28;20049;-62
2024/01/03 02:27:00;;;;;;;5.80;1.13;;;;;;;10.11;95.10;98684.19;4979161;28;20073;-61
2024/01/03 02:29:25;;;;;;;4.80;1.10;;;;;;;10.02;95.19;98695.72;4977263;28;20116;-62
2024/01/03 02:31:50;;;;;;;4.88;1.13;;;;;;;10.06;95.67;98691.28;4971354;28;20864;-61
2024/01/03 02:34:16;;;;;;;7.45;1.08;;;;;;;10.13;94.53;98698.72;4977975;28;20939;-61
2024/01/03 02:36:41;;;;;;;4.68;0.80;;;;;;;10.31;94.23;98710.03;4976406;28;20462;-61
2024/01/03 02:39:07;;;;;;;6.55;1.10;;;;;;;10.43;93.56;98693.22;4979969;28;20077;-62
2024/01/03 02:41:32;;;;;;;6.28;1.25;;;;;;;10.56;91.88;98703.00;4975108;28;20049;-62
2024/01/03 02:43:58;;;;;;;6.90;1.40;;;;;;;10.59;91.58;98683.94;4975431;28;20035;-62
2024/01/03 02:46:23;;;;;;;5.43;1.10;;;;;;;10.66;91.12;98687.94;4970937;28;20038;-61
2024/01/03 02:48:49;;;;;;;4.22;1.08;;;;;;;10.72;90.19;98675.59;4973387;28;20054;-59
2024/01/03 02:51:21;;;;;;;4.03;0.98;;;;;;;10.74;90.42;98683.31;4979979;28;20619;-59
2024/01/03 02:53:47;;;;;;;2.95;1.23;;;;;;;10.78;89.73;98683.09;4978924;28;20056;-58
2024/01/03 02:56:13;;;;;;;4.22;1.00;;;;;;;10.83;89.40;98674.31;4973286;28;20035;-58
2024/01/03 02:58:38;;;;;;;6.50;0.90;;;;;;;10.77;89.79;98680.59;4977154;28;20046;-58
2024/01/03 03:01:04;;;;;;;2.40;0.68;;;;;;;10.77;89.74;98671.06;4978502;28;20054;-58
2024/01/03 03:03:29;;;;;;;7.43;0.88;;;;;;;10.74;91.01;98678.13;4980122;28;20041;-59
2024/01/03 03:05:55;;;;;;;4.93;0.80;;;;;;;10.58;95.19;98715.84;4980171;28;20518;-59
2024/01/03 03:08:21;;;;;;;3.65;0.90;;;;;;;10.38;97.21;98714.06;4980211;28;20037;-59
2024/01/03 03:10:46;;;;;;;1.75;0.70;;;;;;;10.32;95.64;98718.63;4971840;28;20046;-58
2024/01/03 03:13:12;;;;;;;2.70;0.50;;;;;;;10.24;95.66;98719.78;4985897;28;20038;-58
2024/01/03 03:15:37;;;;;;;1.45;0.50;;;;;;;10.08;98.10;98718.72;4979519;28;20041;-58
2024/01/03 03:18:02;;;;;;;2.38;0.73;;;;;;;9.84;100.00;98719.66;4984000;28;20125;-59
2024/01/03 03:20:28;;;;;;;2.40;0.57;;;;;;;9.59;100.00;98721.44;4974292;28;20482;-58
2024/01/03 03:22:53;;;;;;;3.88;0.55;;;;;;;9.39;100.00;98721.31;4972406;28;20070;-59
2024/01/03 03:25:18;;;;;;;3.58;0.60;;;;;;;9.23;100.00;98726.16;4981759;28;20038;-59
2024/01/03 03:27:44;;;;;;;4.25;0.93;;;;;;;9.06;100.00;98728.50;4976246;28;20078;-60
2024/01/03 03:30:10;;;;;;;2.45;0.70;;;;;;;9.05;100.00;98722.50;4981667;28;20042;-60
2024/01/03 03:32:35;;;;;;;3.83;0.73;;;;;;;9.00;100.00;98720.97;4980865;28;20097;-61
2024/01/03 03:35:00;;;;;;;2.15;0.60;;;;;;;8.91;100.00;98729.88;4975873;28;20259;-64
2024/01/03 03:37:26;;;;;;;3.83;0.90;;;;;;;8.99;100.00;98711.59;4984074;28;20073;-61
2024/01/03 03:39:51;;;;;;;6.90;1.00;;;;;;;9.02;100.00;98717.44;4986012;28;20045;-62
2024/01/03 03:42:18;;;;;;;5.15;1.05;;;;;;;9.15;100.00;98717.88;4981488;28;20529;-62
2024/01/03 03:44:44;;;;;;;9.25;1.30;;;;;;;9.26;100.00;98718.31;4989118;28;20268;-61
2024/01/03 03:47:09;;;;;;;5.82;1.20;;;;;;;9.40;100.00;98716.13;4985677;28;20625;-61
2024/01/03 03:49:35;;;;;;;4.75;1.02;;;;;;;9.52;100.00;98717.41;4977625;28;20808;-62
2024/01/03 03:52:00;;;;;;;12.63;2.00;;;;;;;9.64;100.00;98727.28;4981494;28;20125;-62
2024/01/03 03:54:25;;;;;;;7.90;1.35;;;;;;;9.77;100.00;98714.75;4983524;28;20058;-62
2024/01/03 03:56:51;;;;;;;10.57;2.42;;;;;;;9.85;100.00;98720.50;4984159;28;20053;-62
2024/01/03 03:59:16;;;;;;;7.20;1.20;;;;;;;9.94;100.00;98707.25;4982891;28;20434;-62
2024/01/03 04:01:49;;;;;;;7.07;1.40;;;;;;;10.06;100.00;98714.50;4986171;28;20043;-62
2024/01/03 04:04:15;;;;;;;6.55;2.08;;;;;;;10.05;100.00;98721.41;4975922;28;20924;-62
2024/01/03 04:06:41;;;;;;;8.38;1.75;;;;;;;10.07;99.97;98729.06;4983180;28;20066;-61
2024/01/03 04:09:06;;;;;;;6.78;1.42;;;;;;;10.02;100.00;98733.59;4978747;28;20092;-61
2024/01/03 04:11:32;;;;;;;10.60;2.00;;;;;;;10.04;99.81;98729.19;4983387;28;20038;-61
2024/01/03 04:13:57;;;;;;;9.48;1.42;;;;;;;9.97;100.00;98725.19;4982192;28;20125;-62
2024/01/03 04:16:22;;;;;;;8.85;1.75;;;;;;;9.93;100.00;98731.34;4980797;28;20801;-62
2024/01/03 04:18:48;;;;;;;6.05;1.60;;;;;;;9.88;100.00;98721.19;4982597;28;20565;-62
2024/01/03 04:21:13;;;;;;;8.30;1.88;;;;;;;9.77;100.00;98738.81;4985503;28;20091;-61
2024/01/03 04:23:38;;;;;;;4.55;1.23;;;;;;;9.73;100.00;98726.97;4983117;28;20035;-63
2024/01/03 04:26:04;;;;;;;4.97;1.27;;;;;;;9.74;100.00;98748.41;4976447;28;20116;-60
2024/01/03 04:28:29;;;;;;;12.13;1.77;;;;;;;9.82;100.00;98736.94;4978593;28;20199;-61
2024/01/03 04:30:54;;;;;;;8.20;1.27;;;;;;;9.89;100.00;98750.41;4976739;28;20046;-60
2024/01/03 04:33:20;;;;;;;10.75;2.30;;;;;;;9.89;100.00;98740.09;4975675;28;20528;-63
2024/01/03 04:35:45;;;;;;;6.65;1.35;;;;;;;9.81;100.00;98744.72;4977364;28;20066;-62
2024/01/03 04:38:11;;;;;;;4.88;1.33;;;;;;;9.89;100.00;98742.69;4974999;28;20038;-63
2024/01/03 04:40:36;;;;;;;8.73;1.60;;;;;;;9.89;100.00;98737.53;4976398;28;21078;-63
2024/01/03 04:43:02;;;;;;;5.38;1.10;;;;;;;9.89;99.69;98733.19;4974207;28;20041;-63
2024/01/03 04:45:27;;;;;;;4.97;1.42;;;;;;;9.89;99.63;98742.69;4977937;28;20760;-62
2024/01/03 04:47:53;;;;;;;7.65;1.40;;;;;;;10.01;98.28;98742.22;4971810;28;20056;-63
2024/01/03 04:50:18;;;;;;;6.93;1.23;;;;;;;10.08;98.52;98739.34;4975471;28;20045;-63
2024/01/03 04:52:43;;;;;;;3.30;0.93;;;;;;;10.13;97.73;98737.44;4976496;28;20045;-64
2024/01/03 04:55:10;;;;;;;5.80;1.30;;;;;;;10.30;95.17;98710.13;4971701;28;20057;-63
2024/01/03 04:57:36;;;;;;;3.78;0.82;;;;;;;10.38;93.59;98715.81;4977383;28;20585;-63
2024/01/03 05:00:03;;;;;;;5.13;0.95;;;;;;;10.45;92.29;98712.06;4975506;28;20126;-63
2024/01/03 05:02:28;;;;;;;3.97;0.80;;;;;;;10.45;92.32;98706.88;4974073;28;20045;-63
2024/01/03 05:04:53;;;;;;;5.90;0.65;;;;;;;10.43;91.79;98700.97;4978926;28;20066;-63
2024/01/03 05:07:19;;;;;;;3.92;0.88;;;;;;;10.36;91.79;98707.25;4974647;28;20693;-63
2024/01/03 05:09:44;;;;;;;8.70;0.90;;;;;;;10.41;91.49;98713.94;4979124;28;20041;-63
2024/01/03 05:12:10;;;;;;;3.67;0.88;;;;;;;10.40;92.13;98719.16;4972279;28;20557;-63
2024/01/03 05:14:36;;;;;;;7.25;1.02;;;;;;;10.49;91.75;98713.63;4979044;28;20034;-63
2024/01/03 05:17:02;;;;;;;3.65;1.13;;;;;;;10.50;91.19;98708.41;4980714;28;20691;-61
2024/01/03 05:19:27;;;;;;;7.05;1.38;;;;;;;10.50;91.49;98710.16;4978390;28;20454;-61
2024/01/03 05:21:52;;;;;;;3.50;0.68;;;;;;;10.45;91.41;98706.88;4982926;28;20038;-62
2024/01/03 05:24:19;;;;;;;3.92;1.08;;;;;;;10.44;91.32;98712.97;4978232;28;20041;-61
2024/01/03 05:26:45;;;;;;;8.25;1.77;;;;;;;10.43;91.46;98706.97;4984965;28;20035;-61
2024/01/03 05:29:11;;;;;;;3.67;0.63;;;;;;;10.43;91.22;98709.56;4980219;28;20488;-61
2024/01/03 05:31:36;;;;;;;3.67;0.73;;;;;;;10.38;92.42;98708.06;4978204;28;20077;-61
2024/01/03 05:34:01;;;;;;;4.22;1.00;;;;;;;10.38;91.66;98715.81;4979916;28;20049;-61
2024/01/03 05:36:27;;;;;;;5.28;0.95;;;;;;;10.40;91.70;98708.84;4981645;28;20038;-61
2024/01/03 05:38:52;;;;;;;4.07;1.38;;;;;;;10.38;91.19;98710.66;4974337;28;20038;-63
2024/01/03 05:41:17;;;;;;;6.45;1.00;;;;;;;10.40;91.87;98716.59;4975811;28;20037;-63
2024/01/03 05:43:43;;;;;;;4.95;1.23;;;;;;;10.38;92.01;98706.31;4973902;28;20548;-63
2024/01/03 05:46:08;;;;;;;5.38;1.13;;;;;;;10.38;92.99;98719.25;4975331;28;20229;-64
2024/01/03 05:48:33;;;;;;;9.43;1.83;;;;;;;10.33;94.08;98722.91;4974756;28;20141;-62
2024/01/03 05:50:59;;;;;;;7.57;1.27;;;;;;;10.17;97.28;98723.50;4983806;28;20065;-62
2024/01/03 05:53:24;;;;;;;6.60;1.40;;;;;;;10.00;99.68;98709.59;4979008;28;20394;-61
2024/01/03 05:55:49;;;;;;;7.22;2.00;;;;;;;9.88;100.00;98723.78;4977292;28;20129;-61
2024/01/03 05:58:15;;;;;;;5.68;1.13;;;;;;;9.86;100.00;98711.84;4973992;28;20068;-61
2024/01/03 06:00:40;;;;;;;11.07;1.75;;;;;;;9.78;100.00;98706.97;4975371;28;20544;-62
2024/01/03 06:03:05;;;;;;;11.18;2.00;;;;;;;9.78;100.00;98706.97;4981841;28;20050;-62
2024/01/03 06:05:31;;;;;;;13.88;1.98;;;;;;;9.81;100.00;98698.28;4978266;28;20038;-62
2024/01/03 06:07:56;;;;;;;9.40;2.53;;;;;;;9.89;99.85;98697.06;4977540;28;20104;-63
2024/01/03 06:10:21;;;;;;;5.35;1.60;;;;;;;10.05;97.55;98682.69;4973822;28;20153;-63
2024/01/03 06:12:48;;;;;;;10.57;1.95;;;;;;;10.00;97.29;98679.44;4972728;28;20155;-62
2024/01/03 06:15:14;;;;;;;8.50;1.75;;;;;;;10.00;96.87;98686.34;4975540;28;20125;-62
2024/01/03 06:17:39;;;;;;;4.50;1.90;;;;;;;10.07;96.53;98680.88;4983860;28;20469;-62
2024/01/03 06:20:05;;;;;;;12.38;1.90;;;;;;;10.11;94.72;98672.13;4980038;28;20225;-61
2024/01/03 06:22:30;;;;;;;10.80;2.15;;;;;;;10.07;95.42;98687.78;4969076;28;20043;-61
2024/01/03 06:24:56;;;;;;;16.95;2.60;;;;;;;10.13;93.69;98682.38;4979480;28;20038;-60
2024/01/03 06:27:21;;;;;;;14.98;2.13;;;;;;;10.15;93.59;98678.81;4975177;28;20058;-61
2024/01/03 06:29:46;;;;;;;11.65;1.73;;;;;;;10.21;92.10;98682.91;4973643;28;20069;-61
2024/01/03 06:32:12;;;;;;;9.30;1.90;;;;;;;10.20;91.53;98682.09;4979334;28;20133;-60
2024/01/03 06:34:37;;;;;;;9.52;1.70;;;;;;;10.22;91.09;98679.44;4973722;28;20057;-60
2024/01/03 06:37:03;;;;;;;11.05;2.42;;;;;;;10.23;90.94;98686.28;4976308;28;20099;-60
2024/01/03 06:39:28;;;;;;;9.43;2.10;;;;;;;10.17;91.14;98689.09;4970724;28;20039;-59
2024/01/03 06:41:53;;;;;;;8.27;1.77;;;;;;;10.19;91.69;98702.78;4974045;28;20129;-60
2024/01/03 06:44:19;;;;;;;12.73;2.17;;;;;;;10.21;91.95;98708.72;4954057;28;20152;-60
2024/01/03 06:46:44;;;;;;;14.35;2.53;;;;;;;10.36;89.79;98676.28;4971658;28;20074;-59
2024/01/03 06:49:09;;;;;;;9.57;2.30;;;;;;;10.37;90.44;98690.88;4972512;28;20164;-59
2024/01/03 06:51:34;;;;;;;10.18;2.45;;;;;;;10.35;91.67;98708.19;4970380;28;20038;-59
2024/01/03 06:54:00;;;;;;;10.57;1.98;;;;;;;10.34;91.36;98709.06;4976782;28;20038;-60
2024/01/03 06:56:25;;;;;;;9.82;2.42;;;;;;;10.29;91.37;98711.00;4973495;28;20058;-64
2024/01/03 06:58:51;;;;;;;10.55;1.63;;;;;;;10.25;91.62;98705.13;4977970;28;20030;-63
2024/01/03 07:01:16;;;;;;;10.90;3.25;;;;;;;10.23;92.03;98717.25;4967181;28;20042;-63
2024/01/03 07:03:42;;;;;;;11.73;1.85;;;;;;;10.20;91.88;98714.81;4984977;28;20038;-63
2024/01/03 07:06:07;;;;;;;7.65;1.63;;;;;;;10.28;91.27;98699.84;4973765;28;20414;-63
2024/01/03 07:08:33;;;;;;;8.45;1.35;;;;;;;10.24;91.93;98713.75;4977446;28;20661;-63
2024/01/03 07:10:58;;;;;;;8.63;1.52;;;;;;;10.27;91.72;98712.81;4974282;28;20129;-63
2024/01/03 07:13:23;;;;;;;7.43;1.85;;;;;;;10.33;90.46;98708.22;4967891;28;20050;-63
2024/01/03 07:15:49;;;;;;;7.93;1.33;;;;;;;10.33;91.40;98720.31;4970422;28;20034;-63
2024/01/03 07:18:14;;;;;;;9.77;1.45;;;;;;;10.36;90.87;98715.84;4979473;28;20035;-62
2024/01/03 07:20:40;;;;;;;6.18;1.50;;;;;;;10.40;91.97;98726.91;4974164;28;20077;-62
2024/01/03 07:23:05;;;;;;;6.05;1.50;;;;;;;10.43;91.31;98721.63;4978616;28;20026;-63
2024/01/03 07:25:31;;;;;;;6.38;1.15;;;;;;;10.56;90.90;98713.34;4979268;28;20553;-60
2024/01/03 07:27:56;;;;;;;6.03;1.90;;;;;;;10.56;91.42;98720.25;4975861;28;20177;-59
2024/01/03 07:30:25;;;;;;;4.15;1.38;;;;;;;10.57;91.95;98724.47;4975276;28;20058;-59
2024/01/03 07:32:51;;;;;;;7.25;2.20;;;;;;;10.54;92.29;98722.03;4974402;28;20034;-63
2024/01/03 07:35:17;;;;;;;8.77;1.52;;;;;;;10.53;93.00;98722.94;4977606;28;20034;-60
2024/01/03 07:37:42;;;;;;;5.18;1.45;;;;;;;10.50;94.24;98734.25;4978690;28;20045;-60
2024/01/03 07:40:08;;;;;;;4.35;1.08;;;;;;;10.40;97.62;98755.31;4979136;28;20027;-61
2024/01/03 07:42:33;;;;;;;7.53;2.33;;;;;;;10.32;99.50;98757.38;4984028;28;20041;-60
2024/01/03 07:44:59;;;;;;;6.10;1.40;;;;;;;10.20;100.00;98754.38;4989905;28;20045;-61
2024/01/03 07:47:24;;;;;;;8.52;1.30;;;;;;;10.13;100.00;98755.50;4984846;28;20079;-62
2024/01/03 07:49:49;;;;;;;8.63;1.98;;;;;;;10.05;100.00;98764.44;4981989;28;20196;-62
2024/01/03 07:52:15;;;;;;;7.60;1.52;;;;;;;9.98;100.00;98773.31;4986794;28;20065;-60
2024/01/03 07:54:40;;;;;;;9.20;1.92;;;;;;;9.95;100.00;98782.00;4983408;28;20038;-61
2024/01/03 07:57:05;;;;;;;7.80;1.48;;;;;;;9.97;100.00;98777.63;4983409;28;20109;-61
2024/01/03 07:59:32;;;;;;;10.82;2.65;;;;;;;9.97;100.00;98758.75;4988726;28;20110;-61
2024/01/03 08:01:57;;;;;;;8.93;1.60;;;;;;;10.06;100.00;98772.13;4983145;28;20117;-60
2024/01/03 08:04:23;;;;;;;12.38;2.20;;;;;;;10.28;96.75;98760.97;4980375;28;20049;-61
2024/01/03 08:06:48;;;;;;;12.85;1.50;;;;;;;10.44;93.98;98757.72;4988477;28;20062;-60
2024/01/03 08:09:14;;;;;;;9.13;1.30;;;;;;;10.77;89.32;98722.75;4992584;28;20042;-60
2024/01/03 08:11:39;;;;;;;11.70;2.20;;;;;;;10.78;88.51;98718.44;4984754;28;20038;-60
2024/01/03 08:14:04;;;;;;;7.30;1.25;;;;;;;10.75;88.20;98742.66;4986352;28;20049;-60
2024/01/03 08:16:30;;;;;;;5.63;1.27;;;;;;;10.67;87.17;98726.63;4990020;28;20057;-60
2024/01/03 08:18:56;;;;;;;3.92;1.02;;;;;;;10.66;86.85;98734.44;4988411;28;20105;-60
2024/01/03 08:21:21;;;;;;;2.65;0.63;;;;;;;10.63;87.11;98745.75;4988754;28;20523;-60
2024/01/03 08:23:46;;;;;;;2.40;0.70;;;;;;;10.63;87.20;98731.97;4990478;28;20033;-60
2024/01/03 08:26:12;;;;;;;7.05;1.13;;;;;;;10.69;86.63;98739.47;4984043;28;20021;-60
2024/01/03 08:28:40;;;;;;;6.18;1.50;;;;;;;10.68;86.75;98743.00;4983862;28;20035;-60
2024/01/03 08:31:07;;;;;;;4.38;1.20;;;;;;;10.73;86.48;98738.47;4981168;28;20456;-60
2024/01/03 08:33:34;;;;;;;5.03;1.45;;;;;;;10.79;86.22;98739.06;4989526;28;20181;-60
2024/01/03 08:36:01;;;;;;;4.45;1.15;;;;;;;10.83;86.06;98750.09;4987997;28;20124;-61
2024/01/03 08:38:26;;;;;;;3.50;0.80;;;;;;;10.80;86.94;98763.16;4978067;28;20046;-60
2024/01/03 08:40:52;;;;;;;4.55;0.85;;;;;;;10.81;86.32;98767.41;4977643;28;20038;-59
2024/01/03 08:43:17;;;;;;;2.97;1.05;;;;;;;10.74;89.08;98797.81;4978406;28;20047;-59
2024/01/03 08:45:42;;;;;;;6.05;1.00;;;;;;;10.59;92.08;98811.38;4976772;28;20062;-60
2024/01/03 08:48:08;;;;;;;5.75;1.10;;;;;;;10.53;92.80;98814.19;4974353;28;20116;-60
2024/01/03 08:50:33;;;;;;;8.18;1.08;;;;;;;10.45;94.97;98816.22;4978720;28;20089;-62
2024/01/03 08:52:59;;;;;;;4.85;1.15;;;;;;;10.35;97.21;98807.16;4982812;28;20033;-60
2024/01/03 08:55:24;;;;;;;4.13;1.15;;;;;;;10.28;97.69;98821.19;4979691;28;20445;-62
2024/01/03 08:57:50;;;;;;;6.43;1.50;;;;;;;10.21;99.34;98815.41;4988727;28;20048;-61
2024/01/03 09:00:16;;;;;;;7.20;1.40;;;;;;;10.16;100.00;98814.75;4983137;28;20050;-61
2024/01/03 09:02:41;;;;;;;9.23;1.85;;;;;;;10.07;100.00;98819.41;4990373;28;20039;-61
2024/01/03 09:05:06;;;;;;;14.93;2.05;;;;;;;10.04;100.00;98825.53;4986533;28;20037;-61
2024/01/03 09:07:32;;;;;;;9.38;1.70;;;;;;;9.99;100.00;98818.88;4983491;28;20054;-60
2024/01/03 09:09:57;;;;;;;8.63;2.30;;;;;;;9.95;100.00;98830.19;4965030;28;20050;-60
2024/01/03 09:12:24;;;;;;;11.38;1.55;;;;;;;9.97;100.00;98834.41;4975390;28;20031;-60
2024/01/03 09:14:50;;;;;;;9.32;1.50;;;;;;;10.00;100.00;98828.31;4976652;28;20739;-60
2024/01/03 09:17:15;;;;;;;8.13;1.40;;;;;;;10.08;100.00;98834.88;4979034;28;20042;-64
2024/01/03 09:19:41;;;;;;;8.43;1.70;;;;;;;10.14;100.00;98838.97;4976396;28;20073;-64
2024/01/03 09:22:06;;;;;;;4.80;1.35;;;;;;;10.21;100.00;98832.63;4979789;28;20121;-65
2024/01/03 09:24:31;;;;;;;5.65;1.10;;;;;;;10.41;100.00;98827.59;4975610;28;20041;-65
2024/01/03 09:26:57;;;;;;;6.75;1.20;;;;;;;10.65;99.22;98826.59;4980848;28;20044;-64
2024/01/03 09:29:23;;;;;;;7.18;1.30;;;;;;;10.85;96.17;98817.22;4976034;28;20536;-64
2024/01/03 09:31:48;;;;;;;8.93;1.88;;;;;;;10.95;95.87;98821.94;4970871;28;20030;-65
2024/01/03 09:34:13;;;;;;;13.95;1.80;;;;;;;11.05;90.98;98794.81;4978693;28;20030;-64
2024/01/03 09:36:39;;;;;;;5.43;1.25;;;;;;;11.26;86.94;98768.06;4982341;28;20561;-60
2024/01/03 09:39:04;;;;;;;6.05;1.45;;;;;;;11.27;86.21;98769.75;4981486;28;20080;-60
2024/01/03 09:41:32;;;;;;;5.78;1.58;;;;;;;11.38;84.08;98758.09;4970862;28;20053;-61
2024/01/03 09:43:58;;;;;;;8.38;1.45;;;;;;;11.46;83.09;98727.56;4973542;28;20042;-61
2024/01/03 09:46:24;;;;;;;9.15;2.10;;;;;;;11.59;81.54;98702.84;4977120;28;20489;-61
2024/01/03 09:48:49;;;;;;;10.27;1.88;;;;;;;11.61;81.66;98737.25;4970984;28;20039;-61
2024/01/03 09:51:16;;;;;;;10.57;2.38;;;;;;;11.55;81.66;98743.53;4974962;28;20042;-61
2024/01/03 09:53:43;;;;;;;12.15;1.80;;;;;;;11.65;80.43;98721.53;4985748;28;20066;-61
2024/01/03 09:56:09;;;;;;;8.73;2.00;;;;;;;11.71;79.19;98715.22;4974462;28;20049;-61
2024/01/03 09:58:35;;;;;;;9.45;1.67;;;;;;;11.73;79.70;98714.25;4985195;28;20125;-60
2024/01/03 10:01:01;;;;;;;12.00;2.33;;;;;;;11.77;78.46;98707.19;4979939;28;20240;-61
2024/01/03 10:03:27;;;;;;;16.25;1.92;;;;;;;11.78;78.94;98721.81;4975928;28;20038;-60
2024/01/03 10:06:15;;;;;;;14.20;2.47;;;;;;;11.88;78.86;98728.22;4978324;28;20038;-61
2024/01/03 10:08:41;;;;;;;11.52;2.58;;;;;;;11.94;80.52;98747.81;4965256;28;20042;-60
2024/01/03 10:11:20;;;;;;;12.95;2.40;;;;;;;11.97;78.72;98733.00;4980797;28;20086;-60
2024/01/03 10:13:45;;;;;;;11.70;2.25;;;;;;;12.07;78.17;98710.09;4976565;28;20030;-61
2024/01/03 10:16:11;;;;;;;6.90;1.83;;;;;;;12.07;78.46;98729.06;4978962;28;20041;-60
2024/01/03 10:18:37;;;;;;;12.02;1.92;;;;;;;12.00;78.76;98727.66;4984144;28;20758;-60
2024/01/03 10:21:12;;;;;;;10.18;2.03;;;;;;;11.98;79.17;98750.22;4974922;28;20050;-60
2024/01/03 10:23:38;;;;;;;10.15;2.20;;;;;;;12.05;79.19;98743.81;4970386;28;20239;-60
2024/01/03 10:26:03;;;;;;;10.55;2.00;;;;;;;12.09;79.38;98753.13;4974040;28;20480;-61
2024/01/03 10:28:29;;;;;;;10.80;1.70;;;;;;;12.10;80.79;98780.72;4978423;28;20038;-60
2024/01/03 10:30:54;;;;;;;11.57;2.20;;;;;;;12.25;78.46;98727.38;4972745;28;20046;-60
2024/01/03 10:33:20;;;;;;;7.28;1.45;;;;;;;12.35;79.12;98755.34;4975421;28;20062;-60
2024/01/03 10:35:46;;;;;;;9.48;2.33;;;;;;;12.40;79.25;98750.81;4978549;28;20034;-60
2024/01/03 10:38:13;;;;;;;9.07;2.28;;;;;;;12.51;79.24;98755.47;4983163;28;20066;-60
2024/01/03 10:40:41;;;;;;;9.30;1.80;;;;;;;12.76;76.01;98700.69;4975900;28;20046;-61
2024/01/03 10:43:10;;;;;;;13.95;2.33;;;;;;;12.80;74.99;98676.25;4973221;28;20537;-60
2024/01/03 10:45:36;;;;;;;10.93;1.85;;;;;;;12.85;74.74;98664.72;4979840;28;20264;-60
2024/01/03 10:48:01;;;;;;;8.80;2.22;;;;;;;12.82;74.10;98664.06;4987430;28;20576;-60
2024/01/03 10:50:28;;;;;;;11.77;1.80;;;;;;;12.87;74.92;98682.81;4974009;28;20038;-60
2024/01/03 10:52:57;;;;;;;7.93;2.05;;;;;;;13.03;73.33;98654.38;4969303;28;20122;-60
2024/01/03 10:55:37;;;;;;;11.18;1.83;;;;;;;13.16;72.96;98661.44;4986903;28;20038;-60
2024/01/03 10:58:09;;;;;;;10.90;2.40;;;;;;;13.33;73.68;98684.72;4975004;28;20031;-60
2024/01/03 11:00:34;;;;;;;8.13;1.95;;;;;;;13.27;71.57;98653.06;4972519;28;20046;-60
2024/01/03 11:03:22;;;;;;;7.47;1.65;;;;;;;13.14;72.34;98675.41;4975339;28;20409;-60
2024/01/03 11:05:59;;;;;;;11.52;2.28;;;;;;;13.14;72.78;98689.22;4970152;28;20038;-63
2024/01/03 11:08:49;;;;;;;11.45;2.15;;;;;;;13.09;73.13;98688.59;4979094;28;20297;-64
2024/01/03 11:11:28;;;;;;;7.75;1.23;;;;;;;13.00;73.90;98708.06;4978120;28;20057;-64
2024/01/03 11:13:55;;;;;;;12.98;1.88;;;;;;;12.81;74.51;98714.25;4974850;28;20375;-64
2024/01/03 11:16:40;;;;;;;8.98;1.65;;;;;;;12.72;76.06;98762.19;4977411;28;20034;-65
2024/01/03 11:19:07;;;;;;;7.00;1.52;;;;;;;12.64;76.42;98763.50;4981822;28;20149;-64
2024/01/03 11:21:35;;;;;;;7.90;1.52;;;;;;;12.51;78.41;98796.91;4979264;28;20045;-64
2024/01/03 11:24:01;;;;;;;8.88;1.60;;;;;;;12.43;78.60;98794.66;4975648;28;20043;-64
2024/01/03 11:26:55;;;;;;;5.05;2.17;;;;;;;12.45;79.32;98821.38;4973574;28;20045;-64